ADDS METAR Data INFO
IDs: Format: Raw Decoded Include TAF

Data at: 2218 UTC 24 Jun 2018

KAUN 242215Z AUTO 18006KT 10SM CLR 34/11 A2985 RMK AO1
KAUN 242155Z AUTO 19006KT 10SM CLR 35/08 A2985 RMK AO1
KAUN 242135Z AUTO 18005KT 10SM CLR 35/09 A2985 RMK AO1
KAUN 242115Z AUTO 16004KT 10SM CLR 34/09 A2985 RMK AO1
KAUN 242055Z AUTO 19006KT 10SM 34/11 A2985 RMK AO1
KAUN 242010Z AUTO 21006KT 10SM CLR 34/12 A2985 RMK AO1
KAUN 241955Z AUTO 18003KT 9SM CLR 34/12 A2985 RMK AO1
KAUN 241935Z AUTO 21006KT 10SM CLR 34/12 A2985 RMK AO1
KAUN 241915Z AUTO 23005KT 10SM CLR 33/12 A2985 RMK AO1
KAUN 241855Z AUTO 24004KT 10SM CLR 33/12 A2985 RMK AO1
KAUN 241835Z AUTO 19004KT 10SM CLR 32/11 A2985 RMK AO1
KAUN 241815Z AUTO 20005KT 10SM CLR 32/12 A2985 RMK AO1
KAUN 241755Z AUTO 00000KT 10SM CLR 31/12 A2985 RMK AO1
KAUN 241735Z AUTO 23005KT 10SM CLR 31/12 A2984 RMK AO1
KAUN 241715Z AUTO 21004KT 10SM CLR 31/12 A2984 RMK AO1
KAUN 241655Z AUTO 18003KT 10SM CLR 31/09 A2983 RMK AO1
KAUN 241635Z AUTO 00000KT 10SM CLR 30/10 A2982 RMK AO1
KAUN 241615Z AUTO 00000KT 10SM CLR 29/10 A2982 RMK AO1
KAUN 241555Z AUTO 00000KT 10SM CLR 28/10 A2982 RMK AO1
KAUN 241535Z AUTO 00000KT 10SM CLR 28/10 A2982 RMK AO1
KAUN 241515Z AUTO 00000KT 10SM CLR 27/08 A2981 RMK AO1
KAUN 241455Z AUTO 00000KT 10SM CLR 26/08 A2980 RMK AO1
KAUN 241435Z AUTO 00000KT 10SM CLR 26/09 A2979 RMK AO1
KAUN 241415Z AUTO 00000KT 10SM CLR 25/07 A2979 RMK AO1
KAUN 241355Z AUTO 00000KT 10SM CLR 23/07 A2979 RMK AO1
KAUN 241335Z AUTO 00000KT 10SM CLR 21/07 A2979 RMK AO1
KAUN 241315Z AUTO 00000KT 10SM CLR 19/07 A2979 RMK AO1
KAUN 241255Z AUTO 00000KT 10SM CLR 19/07 A2979 RMK AO1
KAUN 241235Z AUTO 00000KT 10SM CLR 17/07 A2978 RMK AO1
KAUN 241215Z AUTO 00000KT 10SM CLR 19/07 A2978 RMK AO1
KAUN 241155Z AUTO 00000KT 10SM CLR 18/09 A2977 RMK AO1
KAUN 241135Z AUTO 00000KT 10SM CLR 21/09 A2977 RMK AO1
KAUN 241115Z AUTO 00000KT 10SM CLR 21/09 A2977 RMK AO1
KAUN 241055Z AUTO 06005KT 10SM CLR 22/10 A2977 RMK AO1
KAUN 241035Z AUTO 00000KT 10SM CLR 22/11 A2977 RMK AO1
KAUN 241015Z AUTO 00000KT 10SM CLR 22/11 A2977 RMK AO1
KAUN 240955Z AUTO 08003KT 10SM CLR 21/11 A2977 RMK AO1
KAUN 240935Z AUTO 00000KT 10SM CLR 24/11 A2977 RMK AO1
KAUN 240915Z AUTO 10006KT 10SM CLR 24/11 A2976 RMK AO1
KAUN 240855Z AUTO 08008KT 10SM CLR 24/11 A2977 RMK AO1
KAUN 240835Z AUTO 11005KT 10SM CLR 24/11 A2977 RMK AO1
KAUN 240815Z AUTO 09004KT 10SM CLR 24/11 A2977 RMK AO1
KAUN 240755Z AUTO 10005KT 10SM CLR 24/11 A2977 RMK AO1
KAUN 240735Z AUTO 11007KT 10SM CLR 25/11 A2977 RMK AO1
KAUN 240715Z AUTO 09009KT 10SM CLR 25/11 A2977 RMK AO1
KAUN 240655Z AUTO 10008KT 10SM CLR 26/10 A2977 RMK AO1
KAUN 240635Z AUTO 09008KT 10SM CLR 26/10 A2978 RMK AO1
KAUN 240615Z AUTO 00000KT 10SM CLR 24/09 A2978 RMK AO1
KAUN 240555Z AUTO 00000KT 10SM CLR 24/09 A2978 RMK AO1
KAUN 240535Z AUTO 00000KT 10SM CLR 23/08 A2978 RMK AO1
KAUN 240515Z AUTO 00000KT 10SM CLR 23/08 A2977 RMK AO1
KAUN 240455Z AUTO 00000KT 10SM CLR 24/08 A2977 RMK AO1
KAUN 240435Z AUTO 00000KT 10SM CLR 23/08 A2976 RMK AO1
KAUN 240415Z AUTO 00000KT 10SM CLR 26/07 A2976 RMK AO1
KAUN 240355Z AUTO 00000KT 10SM CLR 24/08 A2976 RMK AO1
KAUN 240335Z AUTO 00000KT 10SM CLR 27/08 A2976 RMK AO1
KAUN 240315Z AUTO 00000KT 10SM CLR 32/06 A2976 RMK AO1
KAUN 240255Z AUTO 27003KT 10SM CLR 33/06 A2976 RMK AO1
KAUN 240235Z AUTO 28004KT 10SM CLR 34/06 A2976 RMK AO1
KAUN 240215Z AUTO 28004KT 10SM CLR 34/06 A2976 RMK AO1
KAUN 240155Z AUTO 28003KT 10SM CLR 34/06 A2977 RMK AO1
KAUN 240135Z AUTO 29004KT 10SM CLR 35/07 A2977 RMK AO1
KAUN 240115Z AUTO 26009KT 10SM CLR 34/07 A2977 RMK AO1
KAUN 240055Z AUTO 27007KT 10SM CLR 35/07 A2978 RMK AO1
KAUN 240035Z AUTO 26008KT 10SM CLR 35/08 A2978 RMK AO1
KAUN 240015Z AUTO 27008G14KT 10SM CLR 35/08 A2978 RMK AO1
KAUN 232355Z AUTO 27008KT 10SM CLR 35/08 A2979 RMK AO1
KAUN 232335Z AUTO 00000KT 10SM CLR 36/08 A2979 RMK AO1
KAUN 232315Z AUTO 29007KT 10SM CLR 35/08 A2979 RMK AO1
KAUN 232255Z AUTO 27007KT 10SM CLR 35/08 A2980 RMK AO1
KAUN 232235Z AUTO 31004KT 10SM CLR 34/08 A2980 RMK AO1
KAUN 232215Z AUTO 26006KT 10SM CLR 34/08 A2980 RMK AO1
KAUN 232155Z AUTO 27007KT 10SM CLR 34/08 A2981 RMK AO1
KAUN 232135Z AUTO 26007KT 10SM CLR 34/08 A2981 RMK AO1
KAUN 232115Z AUTO 27007KT 10SM CLR 34/08 A2982 RMK AO1
KAUN 232055Z AUTO 25008KT 10SM CLR 34/08 A2981 RMK AO1
KAUN 232035Z AUTO 25009KT 10SM CLR 33/08 A2982 RMK AO1
KAUN 232015Z AUTO 25008G14KT 10SM CLR 33/08 A2982 RMK AO1
KAUN 231955Z AUTO 23010KT 10SM CLR 33/08 A2982 RMK AO1
KAUN 231935Z AUTO 24007KT 10SM CLR 32/09 A2983 RMK AO1
KAUN 231915Z AUTO 22005KT 10SM CLR 32/09 A2982 RMK AO1
KAUN 231855Z AUTO 24008KT 10SM CLR 32/10 A2983 RMK AO1
KAUN 231835Z AUTO 27006KT 10SM CLR 32/09 A2983 RMK AO1
KAUN 231815Z AUTO 32006KT 10SM CLR 31/10 A2983 RMK AO1
KAUN 231755Z AUTO 29006KT 10SM CLR 30/11 A2983 RMK AO1
KAUN 231735Z AUTO 25008KT 10SM CLR 29/11 A2984 RMK AO1
KAUN 231715Z AUTO 28005KT 10SM CLR 29/10 A2984 RMK AO1
KAUN 231655Z AUTO 30005KT 10SM CLR 28/11 A2984 RMK AO1
KAUN 231635Z AUTO 00000KT 10SM CLR 27/11 A2984 RMK AO1
KAUN 231615Z AUTO 28004KT 10SM CLR 28/09 A2984 RMK AO1
KAUN 231555Z AUTO 00000KT 10SM CLR 27/09 A2983 RMK AO1
KAUN 231535Z AUTO 00000KT 10SM CLR 26/10 A2983 RMK AO1
KAUN 231515Z AUTO 10SM CLR 26/11 A2983 RMK AO1
KAUN 231455Z AUTO 00000KT 10SM CLR 26/09 A2983 RMK AO1
KAUN 231435Z AUTO 09003KT 10SM CLR 24/09 A2983 RMK AO1
KAUN 231415Z AUTO 10004KT 10SM CLR 23/09 A2983 RMK AO1
KAUN 231355Z AUTO 10003KT 10SM CLR 22/08 A2983 RMK AO1
KAUN 231335Z AUTO 11006KT 10SM CLR 21/08 A2982 RMK AO1
KAUN 231315Z AUTO 00000KT 10SM CLR 18/09 A2983 RMK AO1
KAUN 231255Z AUTO 00000KT 10SM CLR 16/09 A2982 RMK AO1
KAUN 231235Z AUTO 00000KT 10SM CLR 17/08 A2982 RMK AO1
KAUN 231215Z AUTO 00000KT 10SM CLR 17/08 A2982 RMK AO1
KAUN 231155Z AUTO 00000KT 10SM CLR 19/08 A2982 RMK AO1
KAUN 231135Z AUTO 00000KT 10SM CLR 21/08 A2981 RMK AO1
KAUN 231115Z AUTO 09004KT 10SM CLR 21/08 A2982 RMK AO1
KAUN 231055Z AUTO 08004KT 10SM CLR 22/08 A2982 RMK AO1
KAUN 231035Z AUTO 00000KT 10SM CLR 22/08 A2982 RMK AO1